Pagrindinis puslapis
METAR-TAF:

METAR-TAF

Oro uostai :

Bahreino tarptautinis oro uostas

Bahreinas, Bahreinas

platuma: 26-16N, ilguma: 050-39E, Aukštis: 2 m

Dabartinis oras

Ataskaita buvo paskelbta 31 minutes, ne 05:30 UTC
Vėjas 7 kt iš Pietų, svyruoja nuo Pietų/Pietryčių ir Pietvakarių
Temperatūra 18°C
Drėgmė 52%
Slėgis 1019 hPa
Matomumas 10 km arba daugiau
nėra debesų žemiau 1500 m ir nėra kamuolinių lietaus debesų

METAR: OBBI 300530Z 19007KT 150V220 CAVOK 18/08 Q1019 NOSIG

Laikas: 09:01 (06:01 UTC)

Prognozė

Ataskaita buvo paskelbta 1 valandą ir 1 minutes, ne 05:00 UTC
Prognozė galioja nuo 30 metu 06 UTC su 31 metu 12 UTC
Vėjas 12 kt iš Pietų
Matomumas 10 km arba daugiau
nėra debesų žemiau 1500 m ir nėra kamuolinių lietaus debesų

TAF: OBBI 300500Z 3006/3112 18012KT CAVOK

Orai ataskaitas ir orų prognozės (METAR, TAF).

turimą stotys yra geltonos ir raudonos taškus žemėlapyje.

Perkelti pele per norėdami pamatyti stoties vardą.

Tada spustelėkite, norėdami matyti oro stebėjimo ir prognozės.

Norėdami pakeisti žemėlapį: spustelėkite ant žalios mygtukų su juodo kryžiaus žemyn,; žalią mygtuką su brūkšneliu, jei norite nutolinti; arba žalių rodyklių gretimoms žemėlapius.


METAR-TAF: